Time;durP1;ratioP1;P1;durP2;ratioP2;P2;SDS_P1;SDS_P2;PMS_P1;PMS_P2;Temp;Humidity;BMP_temperature;BMP_pressure;BME280_temperature;BME280_humidity;BME280_pressure;Samples;Min_cycle;Max_cycle;Signal;HPM_P1;HPM_P2
2021/03/05 00:00:21;;;;;;;4.00;1.13;;;18.60;54.80;;;;;;5152326;27;20102;-74
2021/03/05 00:02:47;;;;;;;4.47;1.20;;;18.60;54.80;;;;;;5152897;27;20102;-73
2021/03/05 00:05:13;;;;;;;3.38;1.00;;;18.60;54.80;;;;;;5168749;27;20465;-73
2021/03/05 00:07:39;;;;;;;3.72;1.10;;;18.50;54.70;;;;;;5173867;27;20066;-76
2021/03/05 00:10:07;;;;;;;2.90;1.17;;;18.50;55.30;;;;;;5173788;27;20029;-78
2021/03/05 00:12:33;;;;;;;5.45;1.70;;;18.50;54.70;;;;;;5173448;27;20047;-74
2021/03/05 00:14:59;;;;;;;4.00;0.98;;;18.40;54.50;;;;;;5153779;27;20019;-73
2021/03/05 00:17:24;;;;;;;3.75;1.08;;;18.40;55.20;;;;;;5152103;27;20035;-73
2021/03/05 00:19:50;;;;;;;2.38;0.73;;;18.30;54.40;;;;;;5156418;27;20171;-73
2021/03/05 00:22:16;;;;;;;4.10;1.00;;;18.30;54.30;;;;;;5156563;27;20023;-73
2021/03/05 00:24:42;;;;;;;2.80;0.98;;;18.20;54.30;;;;;;5156922;27;20015;-73
2021/03/05 00:27:07;;;;;;;4.85;1.40;;;18.20;54.30;;;;;;5157089;27;20019;-75
2021/03/05 00:29:33;;;;;;;3.80;1.08;;;18.20;54.50;;;;;;5156490;27;20019;-74
2021/03/05 00:31:59;;;;;;;3.97;1.00;;;18.10;54.60;;;;;;5171173;27;20496;-73
2021/03/05 00:34:24;;;;;;;3.03;1.10;;;18.10;54.70;;;;;;5177266;27;20029;-77
2021/03/05 00:36:50;;;;;;;3.65;1.00;;;18.10;54.70;;;;;;5158555;27;20536;-73
2021/03/05 00:39:15;;;;;;;4.80;1.60;;;18.10;54.70;;;;;;5177213;27;20378;-73
2021/03/05 00:41:41;;;;;;;3.33;0.90;;;18.00;54.60;;;;;;5163978;27;20043;-75
2021/03/05 00:44:07;;;;;;;3.55;1.00;;;18.00;54.60;;;;;;5165684;27;20117;-73
2021/03/05 00:46:33;;;;;;;5.78;0.88;;;18.00;54.70;;;;;;5177126;27;20048;-74
2021/03/05 00:48:59;;;;;;;3.95;1.10;;;18.00;54.70;;;;;;5177298;27;20063;-75
2021/03/05 00:51:25;;;;;;;4.13;1.10;;;18.00;54.70;;;;;;5176923;27;20058;-78
2021/03/05 00:53:51;;;;;;;3.63;1.00;;;17.90;55.30;;;;;;5158411;27;20034;-74
2021/03/05 00:56:17;;;;;;;4.68;1.00;;;17.90;55.40;;;;;;5176809;27;20018;-77
2021/03/05 00:58:43;;;;;;;4.07;1.05;;;17.90;54.80;;;;;;5177130;27;20496;-78
2021/03/05 01:01:08;;;;;;;3.58;1.20;;;17.80;54.80;;;;;;5177291;27;20021;-73
2021/03/05 01:03:34;;;;;;;4.75;1.23;;;17.80;54.80;;;;;;5176869;27;20022;-77
2021/03/05 01:06:00;;;;;;;5.85;1.17;;;17.80;54.90;;;;;;5176788;27;20453;-78
2021/03/05 01:08:26;;;;;;;5.20;1.60;;;17.80;54.80;;;;;;5165216;27;20105;-77
2021/03/05 01:10:52;;;;;;;5.88;1.52;;;17.70;54.60;;;;;;5156049;27;20140;-74
2021/03/05 01:13:17;;;;;;;2.78;1.08;;;17.70;54.60;;;;;;5174758;27;20097;-75
2021/03/05 01:15:43;;;;;;;2.38;0.70;;;17.70;54.50;;;;;;5176763;27;20091;-74
2021/03/05 01:18:09;;;;;;;4.20;1.30;;;17.70;54.50;;;;;;5177074;27;20074;-74
2021/03/05 01:20:36;;;;;;;4.15;0.93;;;17.60;54.40;;;;;;5176536;27;20027;-73
2021/03/05 01:23:03;;;;;;;5.85;0.98;;;17.60;54.40;;;;;;5176629;27;20075;-75
2021/03/05 01:25:32;;;;;;;6.32;1.05;;;17.60;54.30;;;;;;5176248;27;20055;-75
2021/03/05 01:27:58;;;;;;;3.42;1.10;;;17.60;54.90;;;;;;5167146;27;20022;-75
2021/03/05 01:30:24;;;;;;;4.07;1.10;;;17.60;54.50;;;;;;5154448;27;20015;-74
2021/03/05 01:32:51;;;;;;;2.70;1.05;;;17.50;54.40;;;;;;5154858;27;20443;-73
2021/03/05 01:35:21;;;;;;;5.00;1.05;;;17.60;54.50;;;;;;5155073;27;20015;-73
2021/03/05 01:37:47;;;;;;;4.93;1.10;;;17.50;54.50;;;;;;5155511;27;20090;-76
2021/03/05 01:40:20;;;;;;;3.40;1.20;;;17.50;54.50;;;;;;5156234;27;20027;-76
2021/03/05 01:42:47;;;;;;;3.67;1.08;;;17.50;54.60;;;;;;5155449;27;20019;-76
2021/03/05 01:45:17;;;;;;;3.75;1.10;;;17.50;54.60;;;;;;5154902;27;20451;-77
2021/03/05 01:47:44;;;;;;;3.47;0.95;;;17.40;54.50;;;;;;5155262;27;20022;-75
2021/03/05 01:50:33;;;;;;;4.32;1.15;;;17.40;54.50;;;;;;5155091;27;20015;-73
2021/03/05 01:53:04;;;;;;;5.45;1.38;;;17.40;54.50;;;;;;5155260;27;20405;-75
2021/03/05 01:55:30;;;;;;;4.65;1.20;;;17.40;54.50;;;;;;5154747;27;20105;-73
2021/03/05 01:57:57;;;;;;;3.45;1.10;;;17.40;54.60;;;;;;5155074;27;20483;-75
2021/03/05 02:00:31;;;;;;;4.45;1.13;;;17.30;54.60;;;;;;5154548;27;20023;-74
2021/03/05 02:02:57;;;;;;;5.55;1.30;;;17.30;54.60;;;;;;5154591;27;20045;-79
2021/03/05 02:05:22;;;;;;;5.45;1.20;;;17.30;54.50;;;;;;5154474;27;20463;-77
2021/03/05 02:07:48;;;;;;;4.50;1.45;;;17.30;54.50;;;;;;5161842;27;20022;-78
2021/03/05 02:10:14;;;;;;;4.95;1.15;;;17.30;54.50;;;;;;5175478;27;20473;-77
2021/03/05 02:12:40;;;;;;;3.60;1.20;;;17.30;54.40;;;;;;5175736;27;20386;-76
2021/03/05 02:15:06;;;;;;;5.57;1.13;;;17.20;54.40;;;;;;5175907;27;20053;-77
2021/03/05 02:17:36;;;;;;;6.20;1.88;;;17.20;54.30;;;;;;5175259;27;20059;-74
2021/03/05 02:20:12;;;;;;;3.25;0.82;;;17.20;54.30;;;;;;5175511;27;20019;-77
2021/03/05 02:22:58;;;;;;;3.97;1.20;;;17.20;54.20;;;;;;5175771;27;20026;-75
2021/03/05 02:26:00;;;;;;;3.00;1.10;;;17.20;54.30;;;;;;5175286;27;20026;-78
2021/03/05 02:28:44;;;;;;;5.07;1.42;;;17.10;54.30;;;;;;5175087;27;20500;-75
2021/03/05 02:31:27;;;;;;;4.97;1.33;;;17.10;54.20;;;;;;5175366;27;20029;-73
2021/03/05 02:34:16;;;;;;;4.10;1.33;;;17.10;54.30;;;;;;5160790;27;20023;-74
2021/03/05 02:37:05;;;;;;;4.35;1.00;;;17.10;54.30;;;;;;5167516;27;20038;-73
2021/03/05 02:39:47;;;;;;;5.72;1.48;;;17.10;54.30;;;;;;5174961;27;20506;-75
2021/03/05 02:42:29;;;;;;;3.58;1.00;;;17.10;54.30;;;;;;5155064;27;20042;-77
2021/03/05 02:45:10;;;;;;;4.07;1.30;;;17.10;54.30;;;;;;5174926;27;20049;-74
2021/03/05 02:47:39;;;;;;;4.32;1.50;;;17.10;54.30;;;;;;5175247;27;20030;-74
2021/03/05 02:50:07;;;;;;;6.43;1.33;;;17.00;54.30;;;;;;5161236;27;20023;-77
2021/03/05 02:52:33;;;;;;;2.83;1.10;;;17.00;54.30;;;;;;5169438;27;20481;-73
2021/03/05 02:55:02;;;;;;;2.55;0.98;;;17.00;54.30;;;;;;5154010;27;20019;-75
2021/03/05 02:57:31;;;;;;;6.15;1.25;;;17.00;54.30;;;;;;5153526;27;20545;-73
2021/03/05 02:59:57;;;;;;;4.25;1.20;;;17.00;54.30;;;;;;5153838;27;20102;-74
2021/03/05 03:02:25;;;;;;;4.88;1.27;;;17.00;54.20;;;;;;5153507;27;20416;-74
2021/03/05 03:04:53;;;;;;;6.03;1.58;;;17.00;54.20;;;;;;5153651;27;20030;-73
2021/03/05 03:07:20;;;;;;;3.50;1.05;;;17.00;54.20;;;;;;5158435;27;20478;-75
2021/03/05 03:09:46;;;;;;;3.70;1.33;;;16.90;54.20;;;;;;5170073;27;20029;-75
2021/03/05 03:12:15;;;;;;;4.55;1.40;;;16.90;54.20;;;;;;5153365;27;20046;-73
2021/03/05 03:14:43;;;;;;;8.75;1.88;;;16.90;54.20;;;;;;5153609;27;20026;-73
2021/03/05 03:17:10;;;;;;;4.85;1.33;;;16.90;54.20;;;;;;5153728;27;20458;-73
2021/03/05 03:19:38;;;;;;;4.65;1.25;;;16.90;54.10;;;;;;5135109;27;20033;-73
2021/03/05 03:22:05;;;;;;;4.25;1.40;;;16.90;54.10;;;;;;5152665;27;20023;-72
2021/03/05 03:24:32;;;;;;;6.20;1.30;;;16.90;54.10;;;;;;5153348;27;20084;-73
2021/03/05 03:26:58;;;;;;;6.70;1.75;;;16.80;53.80;;;;;;5153447;27;20050;-72
2021/03/05 03:29:25;;;;;;;6.18;1.45;;;16.80;53.80;;;;;;5153068;27;20033;-73
2021/03/05 03:31:51;;;;;;;5.40;1.35;;;16.80;53.90;;;;;;5153374;27;20078;-73
2021/03/05 03:34:18;;;;;;;4.20;0.95;;;16.80;53.90;;;;;;5153138;27;20027;-73
2021/03/05 03:36:44;;;;;;;6.50;1.52;;;16.80;53.90;;;;;;5153239;27;20034;-73
2021/03/05 03:39:10;;;;;;;4.47;1.60;;;16.70;53.90;;;;;;5153863;27;20018;-73
2021/03/05 03:41:38;;;;;;;6.18;1.33;;;16.70;53.80;;;;;;5153417;27;20103;-74
2021/03/05 03:44:09;;;;;;;5.95;1.33;;;16.70;54.30;;;;;;5134564;27;20026;-74
2021/03/05 03:46:42;;;;;;;4.60;0.98;;;16.70;53.80;;;;;;5134597;27;20461;-75
2021/03/05 03:49:17;;;;;;;7.25;1.63;;;16.70;53.80;;;;;;5153376;27;20037;-77
2021/03/05 03:51:48;;;;;;;4.95;1.73;;;16.70;53.80;;;;;;5152173;27;20027;-77
2021/03/05 03:54:15;;;;;;;5.72;1.52;;;16.70;53.80;;;;;;5152423;27;20050;-74
2021/03/05 03:56:42;;;;;;;4.72;1.27;;;16.70;53.70;;;;;;5152904;27;20118;-75
2021/03/05 03:59:11;;;;;;;4.95;1.52;;;16.70;53.70;;;;;;5134637;27;20019;-77
2021/03/05 04:01:38;;;;;;;3.85;1.38;;;16.60;53.60;;;;;;5153159;27;20118;-78
2021/03/05 04:04:06;;;;;;;3.90;1.08;;;16.60;53.60;;;;;;5152927;27;20045;-76
2021/03/05 04:06:34;;;;;;;4.97;1.60;;;16.60;53.60;;;;;;5152665;27;20034;-78
2021/03/05 04:09:01;;;;;;;5.53;1.58;;;16.60;53.50;;;;;;5134840;27;20601;-77
2021/03/05 04:11:28;;;;;;;6.35;1.65;;;16.60;53.50;;;;;;5159673;27;20022;-78
2021/03/05 04:13:54;;;;;;;5.32;1.45;;;16.60;53.50;;;;;;5173633;27;20102;-79
2021/03/05 04:16:20;;;;;;;4.95;1.42;;;16.60;53.50;;;;;;5173349;27;20598;-78
2021/03/05 04:18:45;;;;;;;4.93;1.20;;;16.60;53.40;;;;;;5173526;27;20385;-76
2021/03/05 04:21:20;;;;;;;4.63;1.30;;;16.60;53.40;;;;;;5157297;27;20038;-78
2021/03/05 04:23:46;;;;;;;5.10;1.40;;;16.60;53.30;;;;;;5152879;27;20019;-76
2021/03/05 04:26:11;;;;;;;5.03;1.08;;;16.60;53.30;;;;;;5152368;27;20506;-77
2021/03/05 04:28:37;;;;;;;4.85;1.30;;;16.60;53.20;;;;;;5152779;27;20030;-78
2021/03/05 04:31:03;;;;;;;5.38;1.42;;;16.50;53.10;;;;;;5152313;27;20485;-78
2021/03/05 04:33:29;;;;;;;4.32;1.52;;;16.50;53.20;;;;;;5152341;27;20039;-78
2021/03/05 04:35:55;;;;;;;2.13;1.05;;;16.50;53.10;;;;;;5152620;27;20058;-76
2021/03/05 04:38:21;;;;;;;3.53;1.23;;;16.50;53.70;;;;;;5152346;27;20038;-74
2021/03/05 04:40:46;;;;;;;5.57;1.35;;;16.50;53.20;;;;;;5152610;27;20019;-73
2021/03/05 04:43:12;;;;;;;4.47;1.20;;;16.50;53.20;;;;;;5152397;27;20029;-73
2021/03/05 04:45:37;;;;;;;3.65;1.15;;;16.40;53.10;;;;;;5152567;27;20389;-74
2021/03/05 04:48:03;;;;;;;4.15;1.05;;;16.40;53.10;;;;;;5151950;27;20042;-73
2021/03/05 04:50:29;;;;;;;5.70;1.50;;;16.40;53.10;;;;;;5151697;27;20029;-73
2021/03/05 04:52:54;;;;;;;7.43;1.33;;;16.40;53.10;;;;;;5152446;27;20023;-72
2021/03/05 04:55:20;;;;;;;4.35;1.23;;;16.40;53.10;;;;;;5152153;27;20015;-73
2021/03/05 04:57:46;;;;;;;5.45;1.35;;;16.40;53.10;;;;;;5155308;27;20030;-73
2021/03/05 05:00:12;;;;;;;6.10;1.42;;;16.40;53.00;;;;;;5151754;27;20482;-72
2021/03/05 05:02:37;;;;;;;4.18;1.30;;;16.40;53.00;;;;;;5152606;27;20015;-73
2021/03/05 05:05:04;;;;;;;3.03;1.08;;;16.40;53.00;;;;;;5134233;27;20382;-72
2021/03/05 05:07:29;;;;;;;4.10;1.35;;;16.40;53.00;;;;;;5155956;27;20477;-73
2021/03/05 05:09:55;;;;;;;3.28;1.30;;;16.40;53.10;;;;;;5155833;27;20055;-74
2021/03/05 05:12:21;;;;;;;3.15;1.20;;;16.40;53.00;;;;;;5172010;27;20034;-72
2021/03/05 05:14:47;;;;;;;4.22;1.40;;;16.40;52.90;;;;;;5176939;27;20031;-73
2021/03/05 05:17:13;;;;;;;4.78;1.13;;;16.40;52.90;;;;;;5176508;27;20030;-73
2021/03/05 05:19:38;;;;;;;3.97;1.20;;;16.40;52.90;;;;;;5174956;27;20157;-73
2021/03/05 05:22:04;;;;;;;4.03;1.20;;;16.40;52.90;;;;;;5136922;27;20370;-72
2021/03/05 05:24:30;;;;;;;4.68;1.63;;;16.40;52.90;;;;;;5154869;27;20031;-73
2021/03/05 05:26:55;;;;;;;4.28;1.05;;;16.30;52.70;;;;;;5137127;27;20022;-72
2021/03/05 05:29:21;;;;;;;4.18;1.20;;;16.30;52.70;;;;;;5155521;27;20030;-72
2021/03/05 05:31:47;;;;;;;4.22;1.55;;;16.30;52.70;;;;;;5155489;27;20022;-73
2021/03/05 05:34:12;;;;;;;3.35;1.35;;;16.30;52.70;;;;;;5155601;27;20026;-73
2021/03/05 05:36:38;;;;;;;5.70;1.45;;;16.30;52.70;;;;;;5155731;27;20030;-73
2021/03/05 05:39:04;;;;;;;2.83;1.38;;;16.30;53.00;;;;;;5155403;27;20382;-73
2021/03/05 05:41:29;;;;;;;3.90;1.52;;;16.30;52.70;;;;;;5155192;27;20498;-73
2021/03/05 05:43:55;;;;;;;3.17;1.17;;;16.30;52.80;;;;;;5155318;27;20023;-73
2021/03/05 05:46:22;;;;;;;5.97;1.67;;;16.20;52.70;;;;;;5162094;27;20104;-72
2021/03/05 05:48:48;;;;;;;4.82;1.70;;;16.20;52.60;;;;;;5149808;27;20027;-72
2021/03/05 05:51:27;;;;;;;5.07;1.50;;;16.20;52.70;;;;;;5154754;27;20034;-72
2021/03/05 05:53:56;;;;;;;5.10;1.52;;;16.20;52.60;;;;;;5136495;27;20052;-72
2021/03/05 05:56:22;;;;;;;5.65;1.98;;;16.20;52.70;;;;;;5154789;27;20023;-72
2021/03/05 05:58:48;;;;;;;6.18;1.80;;;16.20;52.70;;;;;;5155099;27;20023;-72
2021/03/05 06:01:14;;;;;;;3.25;1.33;;;16.20;52.70;;;;;;5154040;27;20033;-73
2021/03/05 06:03:40;;;;;;;4.10;1.90;;;16.20;52.70;;;;;;5154836;27;20097;-72
2021/03/05 06:06:06;;;;;;;4.47;1.58;;;16.20;52.80;;;;;;5161917;27;20110;-75
2021/03/05 06:08:32;;;;;;;3.47;1.40;;;16.10;52.90;;;;;;5175529;27;20030;-73
2021/03/05 06:10:59;;;;;;;3.88;1.60;;;16.20;52.80;;;;;;5148530;27;20019;-72
2021/03/05 06:13:26;;;;;;;3.63;1.48;;;16.10;52.90;;;;;;5154626;27;20026;-72
2021/03/05 06:16:14;;;;;;;3.78;1.30;;;16.10;53.00;;;;;;5154318;27;20019;-72
2021/03/05 06:18:40;;;;;;;5.03;1.88;;;16.20;53.00;;;;;;5154900;27;20019;-73
2021/03/05 06:21:06;;;;;;;4.22;1.50;;;16.10;53.50;;;;;;5154904;27;20023;-72
2021/03/05 06:23:34;;;;;;;3.58;1.42;;;16.10;52.90;;;;;;5154470;27;20039;-73
2021/03/05 06:26:02;;;;;;;3.47;1.33;;;16.10;53.20;;;;;;5156130;27;20042;-73
2021/03/05 06:28:27;;;;;;;4.03;1.40;;;16.10;53.00;;;;;;5175287;27;20022;-72
2021/03/05 06:30:54;;;;;;;5.32;1.85;;;16.10;53.70;;;;;;5175400;27;20033;-75
2021/03/05 06:33:28;;;;;;;3.38;1.42;;;16.10;53.20;;;;;;5174941;27;20018;-72
2021/03/05 06:35:55;;;;;;;3.65;1.35;;;16.10;53.20;;;;;;5175148;27;20026;-72
2021/03/05 06:38:44;;;;;;;2.47;1.40;;;16.10;53.20;;;;;;5175108;27;20030;-77
2021/03/05 06:41:18;;;;;;;4.32;1.70;;;16.00;53.20;;;;;;5161831;27;20019;-71
2021/03/05 06:43:46;;;;;;;3.35;1.55;;;16.00;53.20;;;;;;5171417;27;20026;-72
2021/03/05 06:46:38;;;;;;;3.17;1.52;;;16.10;53.30;;;;;;5147632;27;20090;-79
2021/03/05 06:49:10;;;;;;;4.10;1.50;;;16.10;53.20;;;;;;5139821;27;20418;-77
2021/03/05 06:51:36;;;;;;;3.50;1.55;;;16.00;53.20;;;;;;5143713;27;20408;-73
2021/03/05 06:54:10;;;;;;;4.32;1.30;;;16.00;53.30;;;;;;5172753;27;20037;-78
2021/03/05 06:56:38;;;;;;;3.50;1.30;;;16.10;53.20;;;;;;5173178;27;20015;-73
2021/03/05 06:59:05;;;;;;;2.45;1.30;;;16.20;53.30;;;;;;5154411;27;20057;-76
2021/03/05 07:01:31;;;;;;;5.90;1.52;;;16.30;53.10;;;;;;5155345;27;20025;-73
2021/03/05 07:04:23;;;;;;;3.00;1.13;;;16.40;53.00;;;;;;5174165;27;20037;-78
2021/03/05 07:07:04;;;;;;;3.20;1.60;;;16.50;52.90;;;;;;5164243;27;20474;-73
2021/03/05 07:09:35;;;;;;;2.15;1.10;;;16.60;52.80;;;;;;5148216;27;20820;-72
2021/03/05 07:12:17;;;;;;;3.08;1.38;;;16.60;52.60;;;;;;5153543;27;20061;-72
2021/03/05 07:14:45;;;;;;;4.72;1.63;;;16.80;52.60;;;;;;5162358;27;20374;-78
2021/03/05 07:17:12;;;;;;;2.78;1.52;;;16.90;52.60;;;;;;5172027;27;20041;-73
2021/03/05 07:19:39;;;;;;;4.05;2.10;;;16.90;52.60;;;;;;5174728;27;20062;-75
2021/03/05 07:22:07;;;;;;;4.10;2.05;;;17.00;52.70;;;;;;5166069;27;20031;-74
2021/03/05 07:24:34;;;;;;;4.97;1.70;;;17.10;52.90;;;;;;5157400;27;20021;-73
2021/03/05 07:27:02;;;;;;;3.55;1.77;;;17.20;53.10;;;;;;5164458;27;20014;-72
2021/03/05 07:29:44;;;;;;;4.05;2.50;;;17.30;53.20;;;;;;5161098;27;20482;-74
2021/03/05 07:32:16;;;;;;;7.15;1.98;;;17.40;53.40;;;;;;5153391;27;20030;-74
2021/03/05 07:34:58;;;;;;;3.85;2.20;;;17.50;53.30;;;;;;5153356;27;20027;-74
2021/03/05 07:37:31;;;;;;;6.13;2.30;;;17.60;53.30;;;;;;5152615;27;20026;-80
2021/03/05 07:40:02;;;;;;;6.85;2.05;;;17.70;53.50;;;;;;5153087;27;20064;-76
2021/03/05 07:42:29;;;;;;;5.20;1.95;;;17.80;53.40;;;;;;5152230;27;20035;-73
2021/03/05 07:44:56;;;;;;;3.92;2.08;;;17.80;53.50;;;;;;5151797;27;20451;-73
2021/03/05 07:47:25;;;;;;;7.47;2.17;;;17.90;53.50;;;;;;5133899;27;20508;-73
2021/03/05 07:49:57;;;;;;;4.85;2.17;;;18.00;53.50;;;;;;5151544;27;20050;-75
2021/03/05 07:52:23;;;;;;;4.18;2.53;;;18.10;53.10;;;;;;5152723;27;20023;-74
2021/03/05 07:54:50;;;;;;;4.00;2.05;;;18.10;53.10;;;;;;5153588;27;20156;-74
2021/03/05 07:57:18;;;;;;;6.13;2.13;;;18.10;52.90;;;;;;5157388;27;20463;-71
2021/03/05 07:59:49;;;;;;;8.75;2.85;;;18.20;53.00;;;;;;5159667;27;20108;-72
2021/03/05 08:02:15;;;;;;;5.38;2.05;;;18.20;52.80;;;;;;5152699;27;20023;-71
2021/03/05 08:07:36;;;;;;;4.38;1.98;;;18.40;52.70;;;;;;5152721;27;20474;-74
2021/03/05 08:10:03;;;;;;;4.18;1.80;;;18.50;53.10;;;;;;5157980;27;20027;-75
2021/03/05 08:12:42;;;;;;;8.73;1.73;;;18.60;53.40;;;;;;5163136;27;20023;-73
2021/03/05 08:15:08;;;;;;;4.57;1.70;;;18.70;53.40;;;;;;5152301;27;20496;-76
2021/03/05 08:17:48;;;;;;;6.78;2.20;;;18.70;53.00;;;;;;5151671;27;20091;-77
2021/03/05 08:20:16;;;;;;;5.85;1.90;;;18.70;53.00;;;;;;5152633;27;20023;-77
2021/03/05 08:23:01;;;;;;;4.53;1.90;;;18.80;52.80;;;;;;5152329;27;20035;-75
2021/03/05 08:25:34;;;;;;;7.07;1.90;;;18.90;52.50;;;;;;5152468;27;20513;-75
2021/03/05 08:28:02;;;;;;;3.28;1.45;;;18.90;52.50;;;;;;5152653;27;20624;-74
2021/03/05 08:30:33;;;;;;;5.88;1.70;;;18.90;52.30;;;;;;5151851;27;20019;-75
2021/03/05 08:33:01;;;;;;;4.05;1.23;;;19.00;52.20;;;;;;5152693;27;20650;-74
2021/03/05 08:35:29;;;;;;;5.00;1.40;;;19.00;52.10;;;;;;5151737;27;20022;-75
2021/03/05 08:37:58;;;;;;;6.18;1.40;;;19.10;52.10;;;;;;5139281;27;20038;-74
2021/03/05 08:40:37;;;;;;;3.67;1.73;;;19.10;52.00;;;;;;5134389;27;20557;-74
2021/03/05 08:43:24;;;;;;;5.97;1.67;;;19.10;51.70;;;;;;5155326;27;20019;-74
2021/03/05 08:45:55;;;;;;;7.22;1.50;;;19.20;51.50;;;;;;5140651;27;20019;-74
2021/03/05 08:48:39;;;;;;;4.55;1.60;;;19.20;51.30;;;;;;5153909;27;20030;-73
2021/03/05 08:51:25;;;;;;;7.45;1.83;;;19.30;51.20;;;;;;5155053;27;20030;-73
2021/03/05 08:53:54;;;;;;;5.55;1.42;;;19.30;51.20;;;;;;5140686;27;20019;-73
2021/03/05 08:56:27;;;;;;;3.10;1.10;;;19.40;51.30;;;;;;5155109;27;20034;-74
2021/03/05 08:59:04;;;;;;;3.40;1.23;;;19.40;51.00;;;;;;5155681;27;20023;-73
2021/03/05 09:01:41;;;;;;;3.60;1.10;;;19.50;50.90;;;;;;5162692;27;20031;-72
2021/03/05 09:04:17;;;;;;;3.30;1.10;;;19.50;50.90;;;;;;5159603;27;20390;-73
2021/03/05 09:06:53;;;;;;;3.47;1.27;;;19.50;50.90;;;;;;5155859;27;20398;-73
2021/03/05 09:09:21;;;;;;;8.60;1.58;;;19.60;50.70;;;;;;5155671;27;20505;-72
2021/03/05 09:12:04;;;;;;;6.00;1.58;;;19.60;50.70;;;;;;5156843;27;20113;-74
2021/03/05 09:14:30;;;;;;;6.15;1.83;;;19.50;50.00;;;;;;5159175;27;20058;-72
2021/03/05 09:17:00;;;;;;;6.15;1.50;;;19.50;50.20;;;;;;5165535;27;20062;-74
2021/03/05 09:19:37;;;;;;;8.20;1.58;;;19.50;49.50;;;;;;5155559;27;20011;-75
2021/03/05 09:22:12;;;;;;;7.10;1.95;;;19.50;49.60;;;;;;5155840;27;20046;-75
2021/03/05 09:25:00;;;;;;;4.43;1.60;;;19.60;49.40;;;;;;5137311;27;20031;-76
2021/03/05 09:27:31;;;;;;;4.55;1.23;;;19.60;49.30;;;;;;5155534;27;20082;-74
2021/03/05 09:29:58;;;;;;;4.30;1.60;;;19.60;49.30;;;;;;5155131;27;20037;-74
2021/03/05 09:32:25;;;;;;;3.22;1.52;;;19.60;49.20;;;;;;5155028;27;20386;-74
2021/03/05 09:34:59;;;;;;;4.35;1.27;;;19.50;49.20;;;;;;5155511;27;20019;-74
2021/03/05 09:37:29;;;;;;;5.47;1.40;;;19.50;49.10;;;;;;5155185;27;20046;-74
2021/03/05 09:40:02;;;;;;;2.53;1.45;;;19.50;49.10;;;;;;5155489;27;20526;-74
2021/03/05 09:42:52;;;;;;;3.25;1.23;;;19.50;49.00;;;;;;5155309;27;20031;-74
2021/03/05 09:45:35;;;;;;;4.80;1.10;;;19.40;48.90;;;;;;5154760;27;20489;-74
2021/03/05 09:48:01;;;;;;;4.93;1.10;;;19.40;48.90;;;;;;5155335;27;20061;-74
2021/03/05 09:50:27;;;;;;;3.25;1.30;;;19.30;49.20;;;;;;5135215;27;20508;-75
2021/03/05 09:52:53;;;;;;;3.17;1.63;;;19.30;48.60;;;;;;5154590;27;20027;-74
2021/03/05 09:55:27;;;;;;;4.40;1.10;;;19.30;48.40;;;;;;5154655;27;20023;-74
2021/03/05 09:57:53;;;;;;;3.70;1.20;;;19.20;48.40;;;;;;5155154;27;20034;-74
2021/03/05 10:00:31;;;;;;;2.53;0.82;;;19.20;48.20;;;;;;5154687;27;20021;-74
2021/03/05 10:03:09;;;;;;;3.35;1.60;;;19.20;47.90;;;;;;5155097;27;20478;-74
2021/03/05 10:05:38;;;;;;;2.88;1.17;;;19.10;47.80;;;;;;5155357;27;20019;-74
2021/03/05 10:08:16;;;;;;;2.88;0.85;;;19.10;47.80;;;;;;5154969;27;20026;-74
2021/03/05 10:11:00;;;;;;;2.83;1.17;;;19.00;48.00;;;;;;5154664;27;20382;-75
2021/03/05 10:13:47;;;;;;;2.20;1.00;;;19.00;47.90;;;;;;5154721;27;20097;-75
2021/03/05 10:16:19;;;;;;;3.33;1.00;;;19.00;47.80;;;;;;5135898;27;20805;-75
2021/03/05 10:18:47;;;;;;;4.07;1.10;;;18.90;47.60;;;;;;5154753;27;20048;-75
2021/03/05 10:21:15;;;;;;;3.70;1.02;;;18.90;47.80;;;;;;5153307;27;20033;-77
2021/03/05 10:23:42;;;;;;;3.80;1.50;;;18.90;47.70;;;;;;5152920;27;20061;-75
2021/03/05 10:26:15;;;;;;;4.47;1.23;;;18.80;47.70;;;;;;5134132;27;20026;-75
2021/03/05 10:28:41;;;;;;;7.60;1.15;;;18.80;47.90;;;;;;5147676;27;20015;-75
2021/03/05 10:31:07;;;;;;;2.08;0.80;;;18.80;48.00;;;;;;5146792;27;20050;-76
2021/03/05 10:33:44;;;;;;;5.03;1.05;;;18.90;47.90;;;;;;5130169;27;20018;-77
2021/03/05 10:36:15;;;;;;;4.72;1.08;;;18.90;48.00;;;;;;5152117;27;20030;-76
2021/03/05 10:38:42;;;;;;;2.80;0.82;;;18.90;48.20;;;;;;5153327;27;20014;-76
2021/03/05 10:41:08;;;;;;;4.07;1.13;;;19.00;48.30;;;;;;5153220;27;20439;-75
2021/03/05 10:43:35;;;;;;;2.67;1.23;;;19.00;48.10;;;;;;5152177;27;20018;-76
2021/03/05 10:46:03;;;;;;;4.00;0.80;;;19.10;48.20;;;;;;5152767;27;20059;-76
2021/03/05 10:48:28;;;;;;;5.07;1.10;;;19.10;48.30;;;;;;5145048;27;20505;-76
2021/03/05 10:50:54;;;;;;;4.75;1.10;;;19.20;48.40;;;;;;5154143;27;20107;-75
2021/03/05 10:53:19;;;;;;;4.07;1.13;;;19.30;48.30;;;;;;5152566;27;20026;-76
2021/03/05 10:55:45;;;;;;;3.25;1.80;;;19.40;48.40;;;;;;5152520;27;20167;-76
2021/03/05 10:58:12;;;;;;;7.00;2.05;;;19.40;48.30;;;;;;5134451;27;20465;-75
2021/03/05 11:00:37;;;;;;;7.97;2.53;;;19.50;48.20;;;;;;5153167;27;20018;-72
2021/03/05 11:03:03;;;;;;;7.10;2.88;;;19.60;48.00;;;;;;5151770;27;20022;-72
2021/03/05 11:05:29;;;;;;;10.73;3.75;;;19.60;47.90;;;;;;5153633;27;20054;-72
2021/03/05 11:07:55;;;;;;;9.80;4.75;;;19.70;47.90;;;;;;5152738;27;20098;-72
2021/03/05 11:10:21;;;;;;;9.05;3.38;;;19.80;47.80;;;;;;5155929;27;20172;-72
2021/03/05 11:12:48;;;;;;;9.55;4.05;;;19.90;47.60;;;;;;5152421;27;20026;-72
2021/03/05 11:15:15;;;;;;;8.20;3.78;;;19.90;47.60;;;;;;5151739;27;20406;-72
2021/03/05 11:17:41;;;;;;;9.90;3.53;;;20.00;47.30;;;;;;5152487;27;20447;-73
2021/03/05 11:20:07;;;;;;;14.88;3.42;;;20.10;47.20;;;;;;5152648;27;20070;-73
2021/03/05 11:22:33;;;;;;;8.55;2.75;;;20.10;47.00;;;;;;5152488;27;20071;-72
2021/03/05 11:24:59;;;;;;;6.40;2.72;;;20.20;46.80;;;;;;5151883;27;20031;-73
2021/03/05 11:27:24;;;;;;;7.55;2.35;;;20.30;47.00;;;;;;5155386;27;20026;-70
2021/03/05 11:29:50;;;;;;;7.55;2.13;;;20.40;46.60;;;;;;5152156;27;20053;-70
2021/03/05 11:32:16;;;;;;;9.27;2.47;;;20.50;46.70;;;;;;5150967;27;20023;-71
2021/03/05 11:34:43;;;;;;;7.05;2.70;;;20.70;46.50;;;;;;5160814;27;20042;-72
2021/03/05 11:37:08;;;;;;;4.47;2.08;;;20.80;46.10;;;;;;5133632;27;20030;-72
2021/03/05 11:39:34;;;;;;;3.75;1.50;;;20.90;45.90;;;;;;5152039;27;20022;-70
2021/03/05 11:42:00;;;;;;;4.22;1.58;;;20.90;45.90;;;;;;5152159;27;20027;-72
2021/03/05 11:44:27;;;;;;;6.70;1.50;;;21.00;45.40;;;;;;5151579;27;20018;-71
2021/03/05 11:46:52;;;;;;;3.30;1.20;;;21.10;45.00;;;;;;5151818;27;20075;-71
2021/03/05 11:49:18;;;;;;;10.93;1.88;;;21.50;44.60;;;;;;5151001;27;20031;-71
2021/03/05 11:51:44;;;;;;;3.17;1.67;;;21.60;44.50;;;;;;5158874;27;20408;-71
2021/03/05 11:54:09;;;;;;;4.35;1.70;;;21.70;44.30;;;;;;5154388;27;20072;-71
2021/03/05 11:56:36;;;;;;;3.38;1.20;;;21.80;44.40;;;;;;5151517;27;20022;-70
2021/03/05 11:59:02;;;;;;;3.92;1.23;;;21.90;44.20;;;;;;5150689;27;20027;-72
2021/03/05 12:01:28;;;;;;;7.13;1.30;;;22.20;44.00;;;;;;5151530;27;20023;-71
2021/03/05 12:03:54;;;;;;;3.47;1.02;;;22.40;43.50;;;;;;5151821;27;20034;-72
2021/03/05 12:06:22;;;;;;;3.55;1.13;;;22.60;43.00;;;;;;5158542;27;20030;-71
2021/03/05 12:08:48;;;;;;;4.43;1.15;;;22.80;42.70;;;;;;5152173;27;20042;-71
2021/03/05 12:11:14;;;;;;;3.22;0.93;;;22.90;42.20;;;;;;5132570;27;20023;-72
2021/03/05 12:13:39;;;;;;;2.50;1.00;;;24.90;40.90;;;;;;5152151;27;20385;-72
2021/03/05 12:16:05;;;;;;;5.40;1.25;;;26.10;38.30;;;;;;5163611;27;20497;-71
2021/03/05 12:18:31;;;;;;;2.58;1.08;;;27.30;36.90;;;;;;5159483;27;20104;-72
2021/03/05 12:20:56;;;;;;;2.45;0.90;;;28.70;34.60;;;;;;5155874;27;20545;-72
2021/03/05 12:23:22;;;;;;;2.20;0.63;;;29.60;33.00;;;;;;5155735;27;20031;-71
2021/03/05 12:25:48;;;;;;;2.08;0.88;;;30.40;31.90;;;;;;5164201;27;20484;-71
2021/03/05 12:28:13;;;;;;;2.97;1.02;;;30.90;30.90;;;;;;5138684;27;20546;-71
2021/03/05 12:30:39;;;;;;;2.25;1.13;;;31.20;30.30;;;;;;5155779;27;20098;-72
2021/03/05 12:33:05;;;;;;;2.45;1.42;;;30.40;29.90;;;;;;5158584;27;20079;-72
2021/03/05 12:35:30;;;;;;;2.53;0.95;;;30.10;30.40;;;;;;5165310;27;20506;-71
2021/03/05 12:37:56;;;;;;;3.45;0.60;;;31.10;30.40;;;;;;5159027;27;20041;-72
2021/03/05 12:40:22;;;;;;;2.70;0.65;;;31.90;29.50;;;;;;5155420;27;20048;-72
2021/03/05 12:42:48;;;;;;;2.20;0.80;;;32.40;28.80;;;;;;5156346;27;20481;-72
2021/03/05 12:45:14;;;;;;;1.42;0.60;;;32.80;28.40;;;;;;5158032;27;20030;-71
2021/03/05 12:47:40;;;;;;;2.05;0.70;;;32.90;28.00;;;;;;5155161;27;20027;-72
2021/03/05 12:50:07;;;;;;;3.25;0.80;;;33.10;27.90;;;;;;5155420;27;20077;-72
2021/03/05 12:52:33;;;;;;;1.00;0.50;;;33.50;27.40;;;;;;5169939;27;20023;-72
2021/03/05 12:54:59;;;;;;;2.25;0.75;;;33.50;27.20;;;;;;5136777;27;20031;-72
2021/03/05 12:57:25;;;;;;;1.73;0.57;;;33.50;26.90;;;;;;5154468;27;20126;-72